sensor_id;sensor_type;location;lat;lon;timestamp;P1;durP1;ratioP1;P2;durP2;ratioP2
62633;SDS011;48704;50.534;6.442;2022-08-21T00:01:50;7.85;;;3.83;;
62633;SDS011;48704;50.534;6.442;2022-08-21T00:04:16;7.15;;;3.58;;
62633;SDS011;48704;50.534;6.442;2022-08-21T00:06:41;7.80;;;3.75;;
62633;SDS011;48704;50.534;6.442;2022-08-21T00:09:07;7.63;;;3.63;;
62633;SDS011;48704;50.534;6.442;2022-08-21T00:11:33;7.45;;;3.65;;
62633;SDS011;48704;50.534;6.442;2022-08-21T00:14:00;6.03;;;3.47;;
62633;SDS011;48704;50.534;6.442;2022-08-21T00:16:26;8.18;;;3.40;;
62633;SDS011;48704;50.534;6.442;2022-08-21T00:18:51;8.63;;;3.67;;
62633;SDS011;48704;50.534;6.442;2022-08-21T00:21:17;9.63;;;3.25;;
62633;SDS011;48704;50.534;6.442;2022-08-21T00:23:42;8.63;;;3.80;;
62633;SDS011;48704;50.534;6.442;2022-08-21T00:26:07;11.60;;;3.72;;
62633;SDS011;48704;50.534;6.442;2022-08-21T00:28:33;7.60;;;3.95;;
62633;SDS011;48704;50.534;6.442;2022-08-21T00:30:59;7.00;;;3.60;;
62633;SDS011;48704;50.534;6.442;2022-08-21T00:33:25;7.90;;;3.30;;
62633;SDS011;48704;50.534;6.442;2022-08-21T00:35:51;7.43;;;3.50;;
62633;SDS011;48704;50.534;6.442;2022-08-21T00:38:17;8.68;;;3.97;;
62633;SDS011;48704;50.534;6.442;2022-08-21T00:40:46;5.70;;;3.30;;
62633;SDS011;48704;50.534;6.442;2022-08-21T00:43:17;8.65;;;3.88;;
62633;SDS011;48704;50.534;6.442;2022-08-21T00:45:45;5.88;;;3.45;;
62633;SDS011;48704;50.534;6.442;2022-08-21T00:48:11;7.47;;;4.00;;
62633;SDS011;48704;50.534;6.442;2022-08-21T00:50:38;8.38;;;3.78;;
62633;SDS011;48704;50.534;6.442;2022-08-21T00:53:08;10.02;;;4.57;;
62633;SDS011;48704;50.534;6.442;2022-08-21T00:55:35;8.68;;;4.35;;
62633;SDS011;48704;50.534;6.442;2022-08-21T00:58:02;9.05;;;4.30;;
62633;SDS011;48704;50.534;6.442;2022-08-21T01:00:32;5.20;;;3.83;;
62633;SDS011;48704;50.534;6.442;2022-08-21T01:03:00;9.93;;;4.68;;
62633;SDS011;48704;50.534;6.442;2022-08-21T01:05:30;7.75;;;3.65;;
62633;SDS011;48704;50.534;6.442;2022-08-21T01:07:55;9.05;;;4.63;;
62633;SDS011;48704;50.534;6.442;2022-08-21T01:10:24;10.43;;;5.20;;
62633;SDS011;48704;50.534;6.442;2022-08-21T01:12:53;10.02;;;4.43;;
62633;SDS011;48704;50.534;6.442;2022-08-21T01:15:22;9.32;;;4.63;;
62633;SDS011;48704;50.534;6.442;2022-08-21T01:17:49;8.55;;;4.97;;
62633;SDS011;48704;50.534;6.442;2022-08-21T01:20:16;8.90;;;5.22;;
62633;SDS011;48704;50.534;6.442;2022-08-21T01:22:41;8.18;;;4.95;;
62633;SDS011;48704;50.534;6.442;2022-08-21T01:25:08;9.32;;;5.43;;
62633;SDS011;48704;50.534;6.442;2022-08-21T01:27:34;9.70;;;5.13;;
62633;SDS011;48704;50.534;6.442;2022-08-21T01:30:20;7.15;;;3.92;;
62633;SDS011;48704;50.534;6.442;2022-08-21T01:32:49;11.15;;;4.40;;
62633;SDS011;48704;50.534;6.442;2022-08-21T01:35:16;8.88;;;3.75;;
62633;SDS011;48704;50.534;6.442;2022-08-21T01:37:43;10.18;;;4.20;;
62633;SDS011;48704;50.534;6.442;2022-08-21T01:40:09;6.30;;;3.85;;
62633;SDS011;48704;50.534;6.442;2022-08-21T01:42:35;8.23;;;4.13;;
62633;SDS011;48704;50.534;6.442;2022-08-21T01:45:02;9.38;;;3.95;;
62633;SDS011;48704;50.534;6.442;2022-08-21T01:47:28;8.45;;;3.97;;
62633;SDS011;48704;50.534;6.442;2022-08-21T01:49:54;7.88;;;4.32;;
62633;SDS011;48704;50.534;6.442;2022-08-21T01:52:19;6.03;;;3.42;;
62633;SDS011;48704;50.534;6.442;2022-08-21T01:54:46;7.38;;;4.13;;
62633;SDS011;48704;50.534;6.442;2022-08-21T01:57:11;9.38;;;3.72;;
62633;SDS011;48704;50.534;6.442;2022-08-21T01:59:38;10.30;;;4.25;;
62633;SDS011;48704;50.534;6.442;2022-08-21T02:02:04;5.35;;;3.65;;
62633;SDS011;48704;50.534;6.442;2022-08-21T02:04:30;7.03;;;4.07;;
62633;SDS011;48704;50.534;6.442;2022-08-21T02:06:55;6.40;;;3.60;;
62633;SDS011;48704;50.534;6.442;2022-08-21T02:09:21;6.93;;;3.83;;
62633;SDS011;48704;50.534;6.442;2022-08-21T02:11:46;6.40;;;3.83;;
62633;SDS011;48704;50.534;6.442;2022-08-21T02:14:12;6.88;;;3.92;;
62633;SDS011;48704;50.534;6.442;2022-08-21T02:16:40;6.07;;;3.58;;
62633;SDS011;48704;50.534;6.442;2022-08-21T02:19:07;11.13;;;4.05;;
62633;SDS011;48704;50.534;6.442;2022-08-21T02:21:32;7.38;;;3.92;;
62633;SDS011;48704;50.534;6.442;2022-08-21T02:23:58;7.70;;;4.28;;
62633;SDS011;48704;50.534;6.442;2022-08-21T02:26:24;8.00;;;4.05;;
62633;SDS011;48704;50.534;6.442;2022-08-21T02:28:50;7.53;;;3.67;;
62633;SDS011;48704;50.534;6.442;2022-08-21T02:31:15;6.72;;;4.30;;
62633;SDS011;48704;50.534;6.442;2022-08-21T02:33:41;11.55;;;4.60;;
62633;SDS011;48704;50.534;6.442;2022-08-21T02:36:07;12.77;;;6.15;;
62633;SDS011;48704;50.534;6.442;2022-08-21T02:38:34;8.30;;;5.30;;
62633;SDS011;48704;50.534;6.442;2022-08-21T02:41:04;9.15;;;5.22;;
62633;SDS011;48704;50.534;6.442;2022-08-21T02:43:30;9.15;;;5.80;;
62633;SDS011;48704;50.534;6.442;2022-08-21T02:45:57;11.68;;;5.43;;
62633;SDS011;48704;50.534;6.442;2022-08-21T02:48:26;12.75;;;5.90;;
62633;SDS011;48704;50.534;6.442;2022-08-21T02:50:54;8.18;;;4.63;;
62633;SDS011;48704;50.534;6.442;2022-08-21T02:53:24;10.95;;;4.97;;
62633;SDS011;48704;50.534;6.442;2022-08-21T02:55:50;8.18;;;5.28;;
62633;SDS011;48704;50.534;6.442;2022-08-21T02:58:22;7.90;;;5.40;;
62633;SDS011;48704;50.534;6.442;2022-08-21T03:00:50;8.40;;;5.20;;
62633;SDS011;48704;50.534;6.442;2022-08-21T03:03:16;12.65;;;5.85;;
62633;SDS011;48704;50.534;6.442;2022-08-21T03:05:42;10.52;;;7.07;;
62633;SDS011;48704;50.534;6.442;2022-08-21T03:08:09;8.88;;;5.88;;
62633;SDS011;48704;50.534;6.442;2022-08-21T03:10:36;11.10;;;7.70;;
62633;SDS011;48704;50.534;6.442;2022-08-21T03:13:06;9.32;;;5.78;;
62633;SDS011;48704;50.534;6.442;2022-08-21T03:15:32;9.60;;;5.40;;
62633;SDS011;48704;50.534;6.442;2022-08-21T03:17:57;12.05;;;5.65;;
62633;SDS011;48704;50.534;6.442;2022-08-21T03:20:24;8.02;;;5.15;;
62633;SDS011;48704;50.534;6.442;2022-08-21T03:22:52;8.52;;;5.72;;
62633;SDS011;48704;50.534;6.442;2022-08-21T03:25:19;6.70;;;5.38;;
62633;SDS011;48704;50.534;6.442;2022-08-21T03:27:45;10.05;;;5.18;;
62633;SDS011;48704;50.534;6.442;2022-08-21T03:30:13;8.35;;;5.13;;
62633;SDS011;48704;50.534;6.442;2022-08-21T03:32:38;11.10;;;5.38;;
62633;SDS011;48704;50.534;6.442;2022-08-21T03:35:04;10.15;;;6.35;;
62633;SDS011;48704;50.534;6.442;2022-08-21T03:37:29;12.30;;;6.43;;
62633;SDS011;48704;50.534;6.442;2022-08-21T03:39:55;7.22;;;5.35;;
62633;SDS011;48704;50.534;6.442;2022-08-21T03:42:20;7.70;;;5.22;;
62633;SDS011;48704;50.534;6.442;2022-08-21T03:44:46;13.05;;;5.78;;
62633;SDS011;48704;50.534;6.442;2022-08-21T03:47:11;7.50;;;5.65;;
62633;SDS011;48704;50.534;6.442;2022-08-21T03:49:37;8.38;;;4.60;;
62633;SDS011;48704;50.534;6.442;2022-08-21T03:52:03;7.43;;;4.55;;
62633;SDS011;48704;50.534;6.442;2022-08-21T03:54:29;7.00;;;4.53;;
62633;SDS011;48704;50.534;6.442;2022-08-21T03:56:55;11.55;;;4.60;;
62633;SDS011;48704;50.534;6.442;2022-08-21T03:59:21;5.43;;;3.88;;
62633;SDS011;48704;50.534;6.442;2022-08-21T04:01:54;8.10;;;4.05;;
62633;SDS011;48704;50.534;6.442;2022-08-21T04:04:21;9.27;;;4.30;;
62633;SDS011;48704;50.534;6.442;2022-08-21T04:06:47;10.88;;;4.53;;
62633;SDS011;48704;50.534;6.442;2022-08-21T04:09:12;10.90;;;4.45;;
62633;SDS011;48704;50.534;6.442;2022-08-21T04:11:37;6.95;;;4.65;;
62633;SDS011;48704;50.534;6.442;2022-08-21T04:14:03;5.80;;;4.30;;
62633;SDS011;48704;50.534;6.442;2022-08-21T04:16:29;6.40;;;4.10;;
62633;SDS011;48704;50.534;6.442;2022-08-21T04:18:55;7.40;;;4.35;;
62633;SDS011;48704;50.534;6.442;2022-08-21T04:21:21;8.70;;;4.85;;
62633;SDS011;48704;50.534;6.442;2022-08-21T04:23:46;9.02;;;4.80;;
62633;SDS011;48704;50.534;6.442;2022-08-21T04:26:11;6.53;;;4.05;;
62633;SDS011;48704;50.534;6.442;2022-08-21T04:28:37;6.07;;;3.95;;
62633;SDS011;48704;50.534;6.442;2022-08-21T04:31:02;8.80;;;4.43;;
62633;SDS011;48704;50.534;6.442;2022-08-21T04:33:27;10.27;;;4.93;;
62633;SDS011;48704;50.534;6.442;2022-08-21T04:35:53;7.63;;;4.95;;
62633;SDS011;48704;50.534;6.442;2022-08-21T04:38:19;10.18;;;5.30;;
62633;SDS011;48704;50.534;6.442;2022-08-21T04:40:46;6.65;;;4.60;;
62633;SDS011;48704;50.534;6.442;2022-08-21T04:43:13;7.63;;;4.93;;
62633;SDS011;48704;50.534;6.442;2022-08-21T04:45:40;7.07;;;5.15;;
62633;SDS011;48704;50.534;6.442;2022-08-21T04:48:09;8.35;;;4.75;;
62633;SDS011;48704;50.534;6.442;2022-08-21T04:50:37;7.18;;;4.55;;
62633;SDS011;48704;50.534;6.442;2022-08-21T04:53:16;8.35;;;4.47;;
62633;SDS011;48704;50.534;6.442;2022-08-21T04:55:45;9.73;;;5.10;;
62633;SDS011;48704;50.534;6.442;2022-08-21T04:58:12;8.30;;;4.97;;
62633;SDS011;48704;50.534;6.442;2022-08-21T05:00:39;8.27;;;4.53;;
62633;SDS011;48704;50.534;6.442;2022-08-21T05:03:06;8.63;;;4.63;;
62633;SDS011;48704;50.534;6.442;2022-08-21T05:05:34;5.75;;;4.47;;
62633;SDS011;48704;50.534;6.442;2022-08-21T05:08:00;9.30;;;4.93;;
62633;SDS011;48704;50.534;6.442;2022-08-21T05:10:27;7.18;;;4.20;;
62633;SDS011;48704;50.534;6.442;2022-08-21T05:12:54;7.82;;;4.25;;
62633;SDS011;48704;50.534;6.442;2022-08-21T05:15:20;8.95;;;4.28;;
62633;SDS011;48704;50.534;6.442;2022-08-21T05:17:46;5.00;;;4.05;;
62633;SDS011;48704;50.534;6.442;2022-08-21T05:20:12;5.00;;;4.20;;
62633;SDS011;48704;50.534;6.442;2022-08-21T05:22:38;9.35;;;4.45;;
62633;SDS011;48704;50.534;6.442;2022-08-21T05:25:04;6.15;;;3.50;;
62633;SDS011;48704;50.534;6.442;2022-08-21T05:27:31;11.63;;;3.70;;
62633;SDS011;48704;50.534;6.442;2022-08-21T05:29:56;5.75;;;3.67;;
62633;SDS011;48704;50.534;6.442;2022-08-21T05:32:22;5.15;;;3.70;;
62633;SDS011;48704;50.534;6.442;2022-08-21T05:34:47;7.00;;;4.10;;
62633;SDS011;48704;50.534;6.442;2022-08-21T05:37:13;6.10;;;3.38;;
62633;SDS011;48704;50.534;6.442;2022-08-21T05:39:38;7.40;;;3.55;;
62633;SDS011;48704;50.534;6.442;2022-08-21T05:42:04;6.07;;;3.25;;
62633;SDS011;48704;50.534;6.442;2022-08-21T05:44:29;8.25;;;3.75;;
62633;SDS011;48704;50.534;6.442;2022-08-21T05:46:55;7.55;;;3.38;;
62633;SDS011;48704;50.534;6.442;2022-08-21T05:49:26;9.02;;;3.90;;
62633;SDS011;48704;50.534;6.442;2022-08-21T05:51:51;6.15;;;3.40;;
62633;SDS011;48704;50.534;6.442;2022-08-21T05:54:17;6.90;;;3.85;;
62633;SDS011;48704;50.534;6.442;2022-08-21T05:56:42;7.50;;;3.60;;
62633;SDS011;48704;50.534;6.442;2022-08-21T05:59:09;7.97;;;3.40;;
62633;SDS011;48704;50.534;6.442;2022-08-21T06:01:35;8.20;;;3.70;;
62633;SDS011;48704;50.534;6.442;2022-08-21T06:04:03;6.45;;;3.38;;
62633;SDS011;48704;50.534;6.442;2022-08-21T06:06:55;6.75;;;3.95;;
62633;SDS011;48704;50.534;6.442;2022-08-21T06:09:20;10.13;;;3.83;;
62633;SDS011;48704;50.534;6.442;2022-08-21T06:11:46;5.90;;;4.07;;
62633;SDS011;48704;50.534;6.442;2022-08-21T06:14:13;8.95;;;4.13;;
62633;SDS011;48704;50.534;6.442;2022-08-21T06:16:39;6.03;;;3.88;;
62633;SDS011;48704;50.534;6.442;2022-08-21T06:19:04;10.23;;;4.70;;
62633;SDS011;48704;50.534;6.442;2022-08-21T06:21:30;9.27;;;4.45;;
62633;SDS011;48704;50.534;6.442;2022-08-21T06:23:56;9.77;;;4.97;;
62633;SDS011;48704;50.534;6.442;2022-08-21T06:26:21;8.88;;;4.60;;
62633;SDS011;48704;50.534;6.442;2022-08-21T06:28:47;10.25;;;4.65;;
62633;SDS011;48704;50.534;6.442;2022-08-21T06:31:19;8.63;;;4.93;;
62633;SDS011;48704;50.534;6.442;2022-08-21T06:33:47;9.15;;;5.10;;
62633;SDS011;48704;50.534;6.442;2022-08-21T06:36:12;7.00;;;4.10;;
62633;SDS011;48704;50.534;6.442;2022-08-21T06:38:38;7.43;;;3.85;;
62633;SDS011;48704;50.534;6.442;2022-08-21T06:41:04;10.32;;;4.15;;
62633;SDS011;48704;50.534;6.442;2022-08-21T06:43:31;14.20;;;5.45;;
62633;SDS011;48704;50.534;6.442;2022-08-21T06:45:56;10.32;;;4.43;;
62633;SDS011;48704;50.534;6.442;2022-08-21T06:48:22;7.88;;;4.72;;
62633;SDS011;48704;50.534;6.442;2022-08-21T06:50:48;9.65;;;4.63;;
62633;SDS011;48704;50.534;6.442;2022-08-21T06:53:15;7.05;;;4.18;;
62633;SDS011;48704;50.534;6.442;2022-08-21T06:55:43;9.23;;;4.80;;
62633;SDS011;48704;50.534;6.442;2022-08-21T06:58:11;9.65;;;4.38;;
62633;SDS011;48704;50.534;6.442;2022-08-21T07:00:41;11.32;;;5.60;;
62633;SDS011;48704;50.534;6.442;2022-08-21T07:03:15;11.98;;;4.43;;
62633;SDS011;48704;50.534;6.442;2022-08-21T07:05:45;9.65;;;3.78;;
62633;SDS011;48704;50.534;6.442;2022-08-21T07:08:10;8.73;;;4.47;;
62633;SDS011;48704;50.534;6.442;2022-08-21T07:10:35;8.75;;;4.80;;
62633;SDS011;48704;50.534;6.442;2022-08-21T07:13:01;8.40;;;4.60;;
62633;SDS011;48704;50.534;6.442;2022-08-21T07:15:27;9.05;;;4.78;;
62633;SDS011;48704;50.534;6.442;2022-08-21T07:17:55;7.97;;;4.03;;
62633;SDS011;48704;50.534;6.442;2022-08-21T07:20:20;6.82;;;3.45;;
62633;SDS011;48704;50.534;6.442;2022-08-21T07:22:48;8.63;;;4.47;;
62633;SDS011;48704;50.534;6.442;2022-08-21T07:25:13;9.77;;;4.85;;
62633;SDS011;48704;50.534;6.442;2022-08-21T07:27:38;6.55;;;3.70;;
62633;SDS011;48704;50.534;6.442;2022-08-21T07:30:04;10.45;;;3.38;;
62633;SDS011;48704;50.534;6.442;2022-08-21T07:32:30;10.27;;;3.72;;
62633;SDS011;48704;50.534;6.442;2022-08-21T07:34:55;7.57;;;3.03;;
62633;SDS011;48704;50.534;6.442;2022-08-21T07:37:21;5.50;;;2.65;;
62633;SDS011;48704;50.534;6.442;2022-08-21T07:39:46;5.80;;;3.08;;
62633;SDS011;48704;50.534;6.442;2022-08-21T07:42:13;7.82;;;2.95;;
62633;SDS011;48704;50.534;6.442;2022-08-21T07:44:39;9.05;;;2.60;;
62633;SDS011;48704;50.534;6.442;2022-08-21T07:47:04;8.55;;;2.42;;
62633;SDS011;48704;50.534;6.442;2022-08-21T07:49:30;4.70;;;2.50;;
62633;SDS011;48704;50.534;6.442;2022-08-21T07:52:06;7.72;;;2.92;;
62633;SDS011;48704;50.534;6.442;2022-08-21T07:54:32;9.00;;;2.83;;
62633;SDS011;48704;50.534;6.442;2022-08-21T07:56:57;8.20;;;2.15;;
62633;SDS011;48704;50.534;6.442;2022-08-21T07:59:23;9.73;;;2.55;;
62633;SDS011;48704;50.534;6.442;2022-08-21T08:01:49;4.68;;;1.90;;
62633;SDS011;48704;50.534;6.442;2022-08-21T08:04:14;8.07;;;2.13;;
62633;SDS011;48704;50.534;6.442;2022-08-21T08:06:40;10.75;;;2.45;;
62633;SDS011;48704;50.534;6.442;2022-08-21T08:09:06;7.85;;;2.10;;
62633;SDS011;48704;50.534;6.442;2022-08-21T08:11:31;8.60;;;3.08;;
62633;SDS011;48704;50.534;6.442;2022-08-21T08:13:56;6.75;;;2.50;;
62633;SDS011;48704;50.534;6.442;2022-08-21T08:16:23;11.45;;;2.92;;
62633;SDS011;48704;50.534;6.442;2022-08-21T08:18:48;7.20;;;2.33;;
62633;SDS011;48704;50.534;6.442;2022-08-21T08:21:14;9.70;;;2.60;;
62633;SDS011;48704;50.534;6.442;2022-08-21T08:23:40;9.38;;;2.53;;
62633;SDS011;48704;50.534;6.442;2022-08-21T08:26:05;8.93;;;2.22;;
62633;SDS011;48704;50.534;6.442;2022-08-21T08:28:31;7.75;;;2.67;;
62633;SDS011;48704;50.534;6.442;2022-08-21T08:30:58;4.75;;;2.30;;
62633;SDS011;48704;50.534;6.442;2022-08-21T08:33:24;4.70;;;2.13;;
62633;SDS011;48704;50.534;6.442;2022-08-21T08:35:50;7.10;;;2.20;;
62633;SDS011;48704;50.534;6.442;2022-08-21T08:38:17;6.72;;;2.53;;
62633;SDS011;48704;50.534;6.442;2022-08-21T08:43:25;8.43;;;2.40;;
62633;SDS011;48704;50.534;6.442;2022-08-21T08:45:53;9.00;;;1.75;;
62633;SDS011;48704;50.534;6.442;2022-08-21T08:48:36;8.30;;;2.58;;
62633;SDS011;48704;50.534;6.442;2022-08-21T08:51:18;11.32;;;1.95;;
62633;SDS011;48704;50.534;6.442;2022-08-21T08:53:52;6.57;;;2.10;;
62633;SDS011;48704;50.534;6.442;2022-08-21T08:56:25;12.52;;;2.15;;
62633;SDS011;48704;50.534;6.442;2022-08-21T08:58:53;5.47;;;1.80;;
62633;SDS011;48704;50.534;6.442;2022-08-21T09:01:24;9.98;;;2.28;;
62633;SDS011;48704;50.534;6.442;2022-08-21T09:03:49;4.70;;;2.00;;
62633;SDS011;48704;50.534;6.442;2022-08-21T09:25:10;6.43;;;2.45;;
62633;SDS011;48704;50.534;6.442;2022-08-21T09:27:40;9.02;;;1.98;;
62633;SDS011;48704;50.534;6.442;2022-08-21T09:30:06;5.88;;;1.60;;
62633;SDS011;48704;50.534;6.442;2022-08-21T09:32:34;6.78;;;1.60;;
62633;SDS011;48704;50.534;6.442;2022-08-21T09:37:46;5.18;;;1.73;;
62633;SDS011;48704;50.534;6.442;2022-08-21T09:42:53;8.82;;;2.03;;
62633;SDS011;48704;50.534;6.442;2022-08-21T09:45:20;5.75;;;1.80;;
62633;SDS011;48704;50.534;6.442;2022-08-21T09:47:45;5.78;;;1.80;;
62633;SDS011;48704;50.534;6.442;2022-08-21T09:50:15;8.10;;;1.85;;
62633;SDS011;48704;50.534;6.442;2022-08-21T09:52:43;5.10;;;1.75;;
62633;SDS011;48704;50.534;6.442;2022-08-21T09:55:19;10.10;;;2.22;;
62633;SDS011;48704;50.534;6.442;2022-08-21T09:58:06;8.65;;;1.92;;
62633;SDS011;48704;50.534;6.442;2022-08-21T10:00:33;6.22;;;1.45;;
62633;SDS011;48704;50.534;6.442;2022-08-21T10:05:37;4.55;;;1.40;;
62633;SDS011;48704;50.534;6.442;2022-08-21T10:08:04;6.22;;;1.67;;
62633;SDS011;48704;50.534;6.442;2022-08-21T10:10:31;4.72;;;1.90;;
62633;SDS011;48704;50.534;6.442;2022-08-21T10:13:15;9.90;;;2.38;;
62633;SDS011;48704;50.534;6.442;2022-08-21T10:18:37;4.38;;;1.77;;
62633;SDS011;48704;50.534;6.442;2022-08-21T10:26:59;4.38;;;1.80;;
62633;SDS011;48704;50.534;6.442;2022-08-21T10:35:26;6.68;;;2.78;;
62633;SDS011;48704;50.534;6.442;2022-08-21T10:46:07;4.68;;;1.50;;
62633;SDS011;48704;50.534;6.442;2022-08-21T10:48:57;7.53;;;1.90;;
62633;SDS011;48704;50.534;6.442;2022-08-21T10:51:41;3.92;;;1.50;;
62633;SDS011;48704;50.534;6.442;2022-08-21T10:57:11;6.10;;;1.58;;
62633;SDS011;48704;50.534;6.442;2022-08-21T10:59:50;5.28;;;1.30;;
62633;SDS011;48704;50.534;6.442;2022-08-21T11:02:22;4.93;;;1.58;;
62633;SDS011;48704;50.534;6.442;2022-08-21T11:07:32;6.18;;;1.40;;
62633;SDS011;48704;50.534;6.442;2022-08-21T11:10:08;4.45;;;1.58;;
62633;SDS011;48704;50.534;6.442;2022-08-21T11:12:41;5.55;;;1.60;;
62633;SDS011;48704;50.534;6.442;2022-08-21T11:17:58;5.60;;;1.52;;
62633;SDS011;48704;50.534;6.442;2022-08-21T11:23:11;6.45;;;1.35;;
62633;SDS011;48704;50.534;6.442;2022-08-21T11:25:44;5.25;;;1.55;;
62633;SDS011;48704;50.534;6.442;2022-08-21T11:28:22;4.30;;;1.10;;
62633;SDS011;48704;50.534;6.442;2022-08-21T11:31:37;4.40;;;1.48;;
62633;SDS011;48704;50.534;6.442;2022-08-21T11:34:04;4.95;;;1.50;;
62633;SDS011;48704;50.534;6.442;2022-08-21T11:39:10;6.03;;;1.35;;
62633;SDS011;48704;50.534;6.442;2022-08-21T11:42:05;6.90;;;1.50;;
62633;SDS011;48704;50.534;6.442;2022-08-21T11:44:55;4.45;;;1.75;;
62633;SDS011;48704;50.534;6.442;2022-08-21T11:50:28;3.97;;;1.17;;
62633;SDS011;48704;50.534;6.442;2022-08-21T11:58:08;3.88;;;0.98;;
62633;SDS011;48704;50.534;6.442;2022-08-21T12:00:42;3.90;;;1.02;;
62633;SDS011;48704;50.534;6.442;2022-08-21T12:03:23;2.90;;;0.90;;
62633;SDS011;48704;50.534;6.442;2022-08-21T12:06:11;2.50;;;0.98;;
62633;SDS011;48704;50.534;6.442;2022-08-21T12:08:40;4.47;;;1.13;;
62633;SDS011;48704;50.534;6.442;2022-08-21T12:11:09;3.95;;;1.42;;
62633;SDS011;48704;50.534;6.442;2022-08-21T12:13:55;3.17;;;1.00;;
62633;SDS011;48704;50.534;6.442;2022-08-21T12:21:47;3.08;;;1.10;;
62633;SDS011;48704;50.534;6.442;2022-08-21T12:29:48;3.63;;;0.90;;
62633;SDS011;48704;50.534;6.442;2022-08-21T12:35:27;2.25;;;0.95;;
62633;SDS011;48704;50.534;6.442;2022-08-21T12:37:41;2.70;;;1.23;;
62633;SDS011;48704;50.534;6.442;2022-08-21T12:40:18;3.65;;;1.10;;
62633;SDS011;48704;50.534;6.442;2022-08-21T12:42:47;4.45;;;1.00;;
62633;SDS011;48704;50.534;6.442;2022-08-21T12:45:29;2.83;;;1.00;;
62633;SDS011;48704;50.534;6.442;2022-08-21T12:48:06;3.08;;;1.00;;
62633;SDS011;48704;50.534;6.442;2022-08-21T12:50:53;4.05;;;1.15;;
62633;SDS011;48704;50.534;6.442;2022-08-21T12:53:33;2.72;;;1.00;;
62633;SDS011;48704;50.534;6.442;2022-08-21T12:56:07;3.33;;;1.15;;
62633;SDS011;48704;50.534;6.442;2022-08-21T12:58:34;5.60;;;1.45;;
62633;SDS011;48704;50.534;6.442;2022-08-21T13:03:31;6.05;;;1.63;;
62633;SDS011;48704;50.534;6.442;2022-08-21T13:06:00;5.60;;;1.20;;
62633;SDS011;48704;50.534;6.442;2022-08-21T13:08:28;3.17;;;1.10;;
62633;SDS011;48704;50.534;6.442;2022-08-21T13:11:03;6.25;;;1.63;;
62633;SDS011;48704;50.534;6.442;2022-08-21T13:13:30;2.97;;;1.17;;
62633;SDS011;48704;50.534;6.442;2022-08-21T13:16:05;3.00;;;1.30;;
62633;SDS011;48704;50.534;6.442;2022-08-21T13:18:32;5.35;;;1.50;;
62633;SDS011;48704;50.534;6.442;2022-08-21T13:21:16;3.85;;;1.40;;
62633;SDS011;48704;50.534;6.442;2022-08-21T13:23:42;4.97;;;1.08;;
62633;SDS011;48704;50.534;6.442;2022-08-21T13:26:17;4.82;;;1.20;;
62633;SDS011;48704;50.534;6.442;2022-08-21T13:28:44;3.58;;;1.25;;
62633;SDS011;48704;50.534;6.442;2022-08-21T13:31:12;4.90;;;1.30;;
62633;SDS011;48704;50.534;6.442;2022-08-21T13:33:43;4.85;;;1.35;;
62633;SDS011;48704;50.534;6.442;2022-08-21T13:36:25;4.18;;;1.17;;
62633;SDS011;48704;50.534;6.442;2022-08-21T13:38:56;3.67;;;1.20;;
62633;SDS011;48704;50.534;6.442;2022-08-21T13:41:24;6.03;;;1.60;;
62633;SDS011;48704;50.534;6.442;2022-08-21T13:46:31;2.50;;;1.20;;
62633;SDS011;48704;50.534;6.442;2022-08-21T13:48:59;3.60;;;1.15;;
62633;SDS011;48704;50.534;6.442;2022-08-21T13:51:30;4.43;;;1.23;;
62633;SDS011;48704;50.534;6.442;2022-08-21T13:53:56;5.10;;;1.10;;
62633;SDS011;48704;50.534;6.442;2022-08-21T13:56:32;2.75;;;1.15;;
62633;SDS011;48704;50.534;6.442;2022-08-21T13:59:06;2.33;;;1.02;;
62633;SDS011;48704;50.534;6.442;2022-08-21T14:01:38;2.92;;;0.98;;
62633;SDS011;48704;50.534;6.442;2022-08-21T14:04:16;3.28;;;1.15;;
62633;SDS011;48704;50.534;6.442;2022-08-21T14:06:47;4.27;;;1.27;;
62633;SDS011;48704;50.534;6.442;2022-08-21T14:09:15;2.70;;;1.13;;
62633;SDS011;48704;50.534;6.442;2022-08-21T14:11:52;3.17;;;1.00;;
62633;SDS011;48704;50.534;6.442;2022-08-21T14:14:21;3.55;;;1.00;;
62633;SDS011;48704;50.534;6.442;2022-08-21T14:16:54;4.43;;;1.20;;
62633;SDS011;48704;50.534;6.442;2022-08-21T14:19:26;3.20;;;1.10;;
62633;SDS011;48704;50.534;6.442;2022-08-21T14:22:21;3.25;;;0.95;;
62633;SDS011;48704;50.534;6.442;2022-08-21T14:30:35;5.25;;;1.23;;
62633;SDS011;48704;50.534;6.442;2022-08-21T14:33:03;2.13;;;0.90;;
62633;SDS011;48704;50.534;6.442;2022-08-21T14:35:34;2.60;;;1.20;;
62633;SDS011;48704;50.534;6.442;2022-08-21T14:37:59;5.20;;;1.38;;
62633;SDS011;48704;50.534;6.442;2022-08-21T14:40:24;4.00;;;1.17;;
62633;SDS011;48704;50.534;6.442;2022-08-21T14:42:50;3.35;;;1.27;;
62633;SDS011;48704;50.534;6.442;2022-08-21T14:45:26;4.72;;;1.20;;
62633;SDS011;48704;50.534;6.442;2022-08-21T14:47:53;4.13;;;1.45;;
62633;SDS011;48704;50.534;6.442;2022-08-21T14:50:19;4.07;;;1.50;;
62633;SDS011;48704;50.534;6.442;2022-08-21T14:52:45;3.17;;;1.20;;
62633;SDS011;48704;50.534;6.442;2022-08-21T14:55:11;5.25;;;1.40;;
62633;SDS011;48704;50.534;6.442;2022-08-21T14:57:41;4.93;;;1.40;;
62633;SDS011;48704;50.534;6.442;2022-08-21T15:00:10;5.43;;;1.48;;
62633;SDS011;48704;50.534;6.442;2022-08-21T15:02:37;5.22;;;1.42;;
62633;SDS011;48704;50.534;6.442;2022-08-21T15:05:03;2.85;;;1.38;;
62633;SDS011;48704;50.534;6.442;2022-08-21T15:07:29;4.32;;;1.65;;
62633;SDS011;48704;50.534;6.442;2022-08-21T15:09:55;3.40;;;1.20;;
62633;SDS011;48704;50.534;6.442;2022-08-21T15:12:21;5.05;;;1.38;;
62633;SDS011;48704;50.534;6.442;2022-08-21T15:14:46;4.50;;;1.58;;
62633;SDS011;48704;50.534;6.442;2022-08-21T15:17:12;4.95;;;1.45;;
62633;SDS011;48704;50.534;6.442;2022-08-21T15:19:37;5.90;;;1.67;;
62633;SDS011;48704;50.534;6.442;2022-08-21T15:22:03;4.45;;;1.67;;
62633;SDS011;48704;50.534;6.442;2022-08-21T15:24:29;6.55;;;1.33;;
62633;SDS011;48704;50.534;6.442;2022-08-21T15:26:55;5.88;;;1.70;;
62633;SDS011;48704;50.534;6.442;2022-08-21T15:29:21;5.28;;;1.63;;
62633;SDS011;48704;50.534;6.442;2022-08-21T15:31:57;5.15;;;1.30;;
62633;SDS011;48704;50.534;6.442;2022-08-21T15:34:28;7.68;;;2.03;;
62633;SDS011;48704;50.534;6.442;2022-08-21T15:36:55;5.72;;;1.50;;
62633;SDS011;48704;50.534;6.442;2022-08-21T15:39:22;3.83;;;1.70;;
62633;SDS011;48704;50.534;6.442;2022-08-21T15:41:48;4.93;;;1.40;;
62633;SDS011;48704;50.534;6.442;2022-08-21T15:44:14;2.80;;;1.25;;
62633;SDS011;48704;50.534;6.442;2022-08-21T15:46:40;5.38;;;1.75;;
62633;SDS011;48704;50.534;6.442;2022-08-21T15:49:06;5.53;;;1.42;;
62633;SDS011;48704;50.534;6.442;2022-08-21T15:51:33;6.80;;;2.05;;
62633;SDS011;48704;50.534;6.442;2022-08-21T15:53:58;6.30;;;1.75;;
62633;SDS011;48704;50.534;6.442;2022-08-21T15:56:28;5.55;;;1.70;;
62633;SDS011;48704;50.534;6.442;2022-08-21T15:59:00;3.70;;;1.95;;
62633;SDS011;48704;50.534;6.442;2022-08-21T16:01:30;5.28;;;1.60;;
62633;SDS011;48704;50.534;6.442;2022-08-21T16:03:56;4.40;;;1.10;;
62633;SDS011;48704;50.534;6.442;2022-08-21T16:06:21;5.63;;;1.60;;
62633;SDS011;48704;50.534;6.442;2022-08-21T16:08:47;3.85;;;1.40;;
62633;SDS011;48704;50.534;6.442;2022-08-21T16:11:12;5.70;;;1.58;;
62633;SDS011;48704;50.534;6.442;2022-08-21T16:13:40;3.25;;;1.50;;
62633;SDS011;48704;50.534;6.442;2022-08-21T16:16:08;8.70;;;1.90;;
62633;SDS011;48704;50.534;6.442;2022-08-21T16:18:35;5.72;;;1.45;;
62633;SDS011;48704;50.534;6.442;2022-08-21T16:21:01;6.22;;;1.50;;
62633;SDS011;48704;50.534;6.442;2022-08-21T16:23:27;7.30;;;1.90;;
62633;SDS011;48704;50.534;6.442;2022-08-21T16:25:52;3.70;;;1.45;;
62633;SDS011;48704;50.534;6.442;2022-08-21T16:28:18;7.13;;;1.77;;
62633;SDS011;48704;50.534;6.442;2022-08-21T16:30:46;4.72;;;1.48;;
62633;SDS011;48704;50.534;6.442;2022-08-21T16:33:33;7.90;;;1.55;;